Language: 


Des rapports , des résumés tant et plus, au choix de chacun....


Données Historiques de Météogheer
Journalier Rapport pour Février 23, 2017 Unitée:  Les deux    Impériale   Métrique
Suivant Jour »
Journalier Hebdomadaire Mensuel Annuel Sur mesure
  Max: Min: Moyenne:
Température: 53.4 °F /  11.9 °C 45 °F /  7.2 °C 49.3 °F /  9.6 °C
Point de rosée: 49.5 °F /  9.7 °C 31.3 °F /  -0.4 °C 42.8 °F /  6 °C
Humidité: 96% 54% 80%
Vent: 48.8mph /  78.5km/h - 20.6mph /  33.1km/h
Rafales: 59.1mph /  95.1km/h - -
Vent- - WSW
Pression: 29.7 in /  1007.0 hPa 29.4 in /  994.1 hPa -
Pluie: 0.07 in /  1.8 mm    
Historical Graphs
 
 
Données tabulaires pour Février 23, 2017
Heure Température Point de rosée Pression Vent Vent Rafales Humidité Pluie Taux (Horaire) Conditions
00:04 50.5 °F /  10.3 °C 49.5 °F /  9.7 °C 29.7in /  1007.0hPa WSW 17.7mph /  28.5km/h 28mph /  45.1km/h 96% 0in /  0.0mm
00:09 50.5 °F /  10.3 °C 49.5 °F /  9.7 °C 29.7in /  1007.0hPa West 17.7mph /  28.5km/h 27.1mph /  43.6km/h 96% 0in /  0.0mm
00:14 50.5 °F /  10.3 °C 49.5 °F /  9.7 °C 29.7in /  1007.0hPa WSW 28.4mph /  45.7km/h 28.4mph /  45.7km/h 96% 0in /  0.0mm
00:19 50.5 °F /  10.3 °C 49.5 °F /  9.7 °C 29.7in /  1007.0hPa WSW 23.5mph /  37.8km/h 28.4mph /  45.7km/h 96% 0in /  0.0mm
00:24 50.5 °F /  10.3 °C 49.5 °F /  9.7 °C 29.7in /  1007.0hPa WSW 19.5mph /  31.4km/h 28.4mph /  45.7km/h 96% 0in /  0.0mm
00:29 50.5 °F /  10.3 °C 49.5 °F /  9.7 °C 29.7in /  1007.0hPa West 19.5mph /  31.4km/h 28.4mph /  45.7km/h 96% 0.01in /  0.3mm
00:34 50.5 °F /  10.3 °C 49.5 °F /  9.7 °C 29.7in /  1007.0hPa WNW 14.8mph /  23.8km/h 28.4mph /  45.7km/h 96% 0.01in /  0.3mm
00:39 50.5 °F /  10.3 °C 49.5 °F /  9.7 °C 29.7in /  1007.0hPa West 22.8mph /  36.7km/h 30.4mph /  48.9km/h 96% 0.01in /  0.3mm
00:44 50.4 °F /  10.2 °C 49.3 °F /  9.6 °C 29.7in /  1007.0hPa West 24.2mph /  38.9km/h 30.4mph /  48.9km/h 96% 0.01in /  0.3mm
00:49 50.4 °F /  10.2 °C 49.3 °F /  9.6 °C 29.7in /  1007.0hPa WSW 14.1mph /  22.7km/h 26.2mph /  42.2km/h 96% 0.01in /  0.3mm
00:54 50.4 °F /  10.2 °C 49.3 °F /  9.6 °C 29.7in /  1007.0hPa WSW 23mph /  37.0km/h 26.8mph /  43.1km/h 96% 0.01in /  0.3mm
00:59 50.4 °F /  10.2 °C 49.3 °F /  9.6 °C 29.7in /  1007.0hPa WSW 14.5mph /  23.3km/h 27.1mph /  43.6km/h 96% 0.01in /  0.3mm
01:04 50.4 °F /  10.2 °C 49.3 °F /  9.6 °C 29.7in /  1007.0hPa WSW 21.3mph /  34.3km/h 27.1mph /  43.6km/h 96% 0.01in /  0.3mm
01:09 50.2 °F /  10.1 °C 49.1 °F /  9.5 °C 29.7in /  1007.0hPa WSW 20.4mph /  32.8km/h 24.6mph /  39.6km/h 96% 0.01in /  0.3mm
01:14 50.2 °F /  10.1 °C 49.1 °F /  9.5 °C 29.7in /  1007.0hPa WSW 14.8mph /  23.8km/h 24.6mph /  39.6km/h 96% 0.01in /  0.3mm
01:19 50.2 °F /  10.1 °C 49.1 °F /  9.5 °C 29.7in /  1007.0hPa West 17.7mph /  28.5km/h 26.4mph /  42.5km/h 96% 0.01in /  0.3mm
01:24 50.2 °F /  10.1 °C 49.1 °F /  9.5 °C 29.7in /  1006.0hPa West 22.8mph /  36.7km/h 27.5mph /  44.2km/h 96% 0in /  0.0mm
01:29 50.2 °F /  10.1 °C 49.1 °F /  9.5 °C 29.7in /  1006.0hPa WSW 18.6mph /  29.9km/h 27.5mph /  44.2km/h 96% 0in /  0.0mm
01:34 50.2 °F /  10.1 °C 49.1 °F /  9.5 °C 29.7in /  1006.0hPa West 21.3mph /  34.3km/h 30.2mph /  48.6km/h 96% 0in /  0.0mm
01:39 50.2 °F /  10.1 °C 49.1 °F /  9.5 °C 29.7in /  1007.0hPa WSW 23.9mph /  38.5km/h 30.2mph /  48.6km/h 96% 0in /  0.0mm
01:44 50.2 °F /  10.1 °C 49.1 °F /  9.5 °C 29.7in /  1007.0hPa West 17.7mph /  28.5km/h 28.6mph /  46.0km/h 96% 0in /  0.0mm
01:49 50.2 °F /  10.1 °C 48.7 °F /  9.3 °C 29.7in /  1007.0hPa WSW 22.8mph /  36.7km/h 28.6mph /  46.0km/h 95% 0in /  0.0mm
01:54 50.2 °F /  10.1 °C 48.7 °F /  9.3 °C 29.7in /  1007.0hPa WSW 17.4mph /  28.0km/h 25.9mph /  41.7km/h 95% 0in /  0.0mm
01:59 50.2 °F /  10.1 °C 48.7 °F /  9.3 °C 29.7in /  1007.0hPa WSW 22.6mph /  36.4km/h 27.5mph /  44.2km/h 95% 0in /  0.0mm
02:04 50.2 °F /  10.1 °C 48.7 °F /  9.3 °C 29.7in /  1007.0hPa West 17.7mph /  28.5km/h 29.8mph /  47.9km/h 95% 0in /  0.0mm
02:09 50.2 °F /  10.1 °C 48.7 °F /  9.3 °C 29.7in /  1007.0hPa WSW 15.4mph /  24.8km/h 29.8mph /  47.9km/h 95% 0in /  0.0mm
02:14 50 °F /  10.0 °C 48.4 °F /  9.1 °C 29.7in /  1007.0hPa WSW 19.9mph /  32.0km/h 25.7mph /  41.4km/h 94% 0in /  0.0mm
02:19 50 °F /  10.0 °C 48.4 °F /  9.1 °C 29.7in /  1007.0hPa WSW 14.8mph /  23.8km/h 23.9mph /  38.5km/h 94% 0in /  0.0mm
02:24 50 °F /  10.0 °C 48.4 °F /  9.1 °C 29.7in /  1006.0hPa WSW 17.2mph /  27.7km/h 26.2mph /  42.2km/h 94% 0in /  0.0mm
02:29 50 °F /  10.0 °C 48 °F /  8.9 °C 29.7in /  1006.0hPa WSW 22.4mph /  36.0km/h 26.4mph /  42.5km/h 93% 0in /  0.0mm
02:34 50 °F /  10.0 °C 48 °F /  8.9 °C 29.7in /  1006.0hPa WSW 23mph /  37.0km/h 30.9mph /  49.7km/h 93% 0in /  0.0mm
02:37 50 °F /  10.0 °C 48 °F /  8.9 °C 29.7in /  1006.0hPa WSW 19mph /  30.6km/h 30.9mph /  49.7km/h 93% 0in /  0.0mm
02:43 50 °F /  10.0 °C 48 °F /  8.9 °C 29.7in /  1006.0hPa WSW 15.4mph /  24.8km/h 30.9mph /  49.7km/h 93% 0in /  0.0mm
02:47 49.8 °F /  9.9 °C 47.8 °F /  8.8 °C 29.7in /  1006.0hPa WSW 23.3mph /  37.5km/h 24.2mph /  38.9km/h 93% 0in /  0.0mm
02:52 49.8 °F /  9.9 °C 48.2 °F /  9.0 °C 29.7in /  1006.0hPa WSW 15.2mph /  24.5km/h 25.5mph /  41.0km/h 94% 0in /  0.0mm
02:57 49.8 °F /  9.9 °C 48.2 °F /  9.0 °C 29.7in /  1006.0hPa WSW 21.9mph /  35.2km/h 25.5mph /  41.0km/h 94% 0in /  0.0mm
03:02 49.8 °F /  9.9 °C 48.2 °F /  9.0 °C 29.7in /  1006.0hPa WSW 11.4mph /  18.3km/h 25.7mph /  41.4km/h 94% 0in /  0.0mm
03:08 49.8 °F /  9.9 °C 47.8 °F /  8.8 °C 29.7in /  1005.0hPa WSW 23mph /  37.0km/h 25.1mph /  40.4km/h 93% 0in /  0.0mm
03:13 49.8 °F /  9.9 °C 47.8 °F /  8.8 °C 29.7in /  1005.0hPa WSW 13mph /  20.9km/h 29.8mph /  47.9km/h 93% 0in /  0.0mm
03:18 49.8 °F /  9.9 °C 47.7 °F /  8.7 °C 29.7in /  1005.0hPa WSW 17mph /  27.4km/h 29.8mph /  47.9km/h 92% 0in /  0.0mm
03:23 49.8 °F /  9.9 °C 47.7 °F /  8.7 °C 29.6in /  1003.9hPa WSW 17.4mph /  28.0km/h 30.4mph /  48.9km/h 92% 0in /  0.0mm
03:28 49.8 °F /  9.9 °C 47.7 °F /  8.7 °C 29.6in /  1003.9hPa WSW 12.5mph /  20.1km/h 30.4mph /  48.9km/h 92% 0in /  0.0mm
03:33 49.6 °F /  9.8 °C 47.7 °F /  8.7 °C 29.6in /  1003.9hPa West 19.7mph /  31.7km/h 25.7mph /  41.4km/h 93% 0in /  0.0mm
03:38 49.6 °F /  9.8 °C 47.7 °F /  8.7 °C 29.6in /  1003.9hPa WSW 19.2mph /  30.9km/h 23.9mph /  38.5km/h 93% 0in /  0.0mm
03:43 49.6 °F /  9.8 °C 47.7 °F /  8.7 °C 29.6in /  1003.9hPa WSW 22.8mph /  36.7km/h 30mph /  48.3km/h 93% 0in /  0.0mm
03:48 49.6 °F /  9.8 °C 47.7 °F /  8.7 °C 29.6in /  1003.9hPa West 14.8mph /  23.8km/h 30mph /  48.3km/h 93% 0in /  0.0mm
03:53 49.6 °F /  9.8 °C 47.7 °F /  8.7 °C 29.7in /  1005.0hPa WSW 18.8mph /  30.2km/h 26.4mph /  42.5km/h 93% 0in /  0.0mm
03:58 49.6 °F /  9.8 °C 47.7 °F /  8.7 °C 29.7in /  1005.0hPa WSW 14.5mph /  23.3km/h 23.9mph /  38.5km/h 93% 0in /  0.0mm
04:03 49.6 °F /  9.8 °C 48 °F /  8.9 °C 29.7in /  1005.0hPa WSW 14.8mph /  23.8km/h 23.9mph /  38.5km/h 94% 0in /  0.0mm
04:08 49.6 °F /  9.8 °C 48 °F /  8.9 °C 29.7in /  1005.0hPa WSW 23.5mph /  37.8km/h 25.3mph /  40.7km/h 94% 0in /  0.0mm
04:13 49.5 °F /  9.7 °C 47.8 °F /  8.8 °C 29.7in /  1005.0hPa SW 22.8mph /  36.7km/h 25.3mph /  40.7km/h 94% 0in /  0.0mm
04:18 49.5 °F /  9.7 °C 47.8 °F /  8.8 °C 29.7in /  1005.0hPa WSW 22.8mph /  36.7km/h 23mph /  37.0km/h 94% 0in /  0.0mm
04:23 49.5 °F /  9.7 °C 47.8 °F /  8.8 °C 29.6in /  1003.9hPa West 14.3mph /  23.0km/h 22.8mph /  36.7km/h 94% 0in /  0.0mm
04:28 49.3 °F /  9.6 °C 47.8 °F /  8.8 °C 29.6in /  1003.9hPa WSW 22.4mph /  36.0km/h 22.8mph /  36.7km/h 95% 0in /  0.0mm
04:33 49.3 °F /  9.6 °C 47.8 °F /  8.8 °C 29.6in /  1003.9hPa WSW 15.4mph /  24.8km/h 25.1mph /  40.4km/h 95% 0in /  0.0mm
04:38 49.3 °F /  9.6 °C 47.8 °F /  8.8 °C 29.6in /  1003.9hPa WSW 16.3mph /  26.2km/h 25.5mph /  41.0km/h 95% 0in /  0.0mm
04:43 49.3 °F /  9.6 °C 47.8 °F /  8.8 °C 29.6in /  1003.9hPa West 17.7mph /  28.5km/h 27.5mph /  44.2km/h 95% 0in /  0.0mm
04:48 49.1 °F /  9.5 °C 47.7 °F /  8.7 °C 29.6in /  1003.9hPa WSW 12.5mph /  20.1km/h 27.5mph /  44.2km/h 95% 0in /  0.0mm
04:53 49.1 °F /  9.5 °C 47.7 °F /  8.7 °C 29.6in /  1002.9hPa WSW 12.5mph /  20.1km/h 25.5mph /  41.0km/h 95% 0in /  0.0mm
04:58 49.1 °F /  9.5 °C 47.7 °F /  8.7 °C 29.6in /  1002.9hPa WSW 17mph /  27.4km/h 26.8mph /  43.1km/h 95% 0in /  0.0mm
05:03 49.1 °F /  9.5 °C 47.7 °F /  8.7 °C 29.6in /  1002.9hPa SW 17.9mph /  28.8km/h 26.8mph /  43.1km/h 95% 0in /  0.0mm
05:08 49.1 °F /  9.5 °C 47.7 °F /  8.7 °C 29.6in /  1001.9hPa WSW 19.7mph /  31.7km/h 25.9mph /  41.7km/h 95% 0in /  0.0mm
05:13 49.1 °F /  9.5 °C 47.7 °F /  8.7 °C 29.6in /  1001.9hPa SW 17.4mph /  28.0km/h 23.7mph /  38.1km/h 95% 0in /  0.0mm
05:18 49.1 °F /  9.5 °C 47.7 °F /  8.7 °C 29.6in /  1001.9hPa WSW 19.9mph /  32.0km/h 22.6mph /  36.4km/h 95% 0in /  0.0mm
05:23 49.1 °F /  9.5 °C 47.7 °F /  8.7 °C 29.6in /  1002.9hPa WSW 20.8mph /  33.5km/h 22.6mph /  36.4km/h 95% 0in /  0.0mm
05:28 49.1 °F /  9.5 °C 47.7 °F /  8.7 °C 29.6in /  1002.9hPa WSW 21.5mph /  34.6km/h 21.5mph /  34.6km/h 95% 0in /  0.0mm
05:33 49.1 °F /  9.5 °C 47.7 °F /  8.7 °C 29.6in /  1002.9hPa WSW 23.5mph /  37.8km/h 23.5mph /  37.8km/h 95% 0in /  0.0mm
05:38 49.1 °F /  9.5 °C 47.7 °F /  8.7 °C 29.6in /  1002.9hPa WSW 24.6mph /  39.6km/h 24.6mph /  39.6km/h 95% 0in /  0.0mm
05:43 49.1 °F /  9.5 °C 47.7 °F /  8.7 °C 29.6in /  1002.9hPa WSW 15.2mph /  24.5km/h 24.6mph /  39.6km/h 95% 0in /  0.0mm
05:48 49.1 °F /  9.5 °C 47.7 °F /  8.7 °C 29.6in /  1002.9hPa SW 12.5mph /  20.1km/h 23.5mph /  37.8km/h 95% 0in /  0.0mm
05:53 49.1 °F /  9.5 °C 47.7 °F /  8.7 °C 29.6in /  1002.9hPa West 13.2mph /  21.2km/h 21.3mph /  34.3km/h 95% 0in /  0.0mm
05:58 49.1 °F /  9.5 °C 47.7 °F /  8.7 °C 29.6in /  1002.9hPa SW 11mph /  17.7km/h 21.3mph /  34.3km/h 95% 0in /  0.0mm
06:03 48.9 °F /  9.4 °C 47.7 °F /  8.7 °C 29.6in /  1002.9hPa SW 11mph /  17.7km/h 17.7mph /  28.5km/h 95% 0in /  0.0mm
06:08 48.9 °F /  9.4 °C 47.8 °F /  8.8 °C 29.6in /  1001.9hPa SW 10.5mph /  16.9km/h 21mph /  33.8km/h 96% 0in /  0.0mm
06:13 48.9 °F /  9.4 °C 47.8 °F /  8.8 °C 29.6in /  1001.9hPa WSW 19.5mph /  31.4km/h 21mph /  33.8km/h 96% 0in /  0.0mm
06:18 48.9 °F /  9.4 °C 47.8 °F /  8.8 °C 29.6in /  1001.9hPa WSW 10.7mph /  17.2km/h 21.3mph /  34.3km/h 96% 0in /  0.0mm
06:23 48.9 °F /  9.4 °C 47.8 °F /  8.8 °C 29.6in /  1001.9hPa SW 10.1mph /  16.3km/h 21.3mph /  34.3km/h 96% 0in /  0.0mm
06:28 48.7 °F /  9.3 °C 47.7 °F /  8.7 °C 29.6in /  1001.9hPa SSW 14.8mph /  23.8km/h 19.9mph /  32.0km/h 96% 0in /  0.0mm
06:33 48.7 °F /  9.3 °C 47.7 °F /  8.7 °C 29.6in /  1001.9hPa WSW 12.1mph /  19.5km/h 19.9mph /  32.0km/h 96% 0in /  0.0mm
06:38 48.7 °F /  9.3 °C 47.7 °F /  8.7 °C 29.6in /  1000.9hPa SSW 12.5mph /  20.1km/h 19.5mph /  31.4km/h 96% 0in /  0.0mm
06:43 48.6 °F /  9.2 °C 47.5 °F /  8.6 °C 29.6in /  1000.9hPa SW 14.8mph /  23.8km/h 19.5mph /  31.4km/h 96% 0in /  0.0mm
06:48 48.6 °F /  9.2 °C 47.5 °F /  8.6 °C 29.6in /  1000.9hPa SW 10.7mph /  17.2km/h 17.7mph /  28.5km/h 96% 0in /  0.0mm
06:53 48.6 °F /  9.2 °C 47.5 °F /  8.6 °C 29.6in /  1000.9hPa SW 14.8mph /  23.8km/h 19.2mph /  30.9km/h 96% 0in /  0.0mm
06:58 48.6 °F /  9.2 °C 47.5 °F /  8.6 °C 29.6in /  1000.9hPa SW 14.8mph /  23.8km/h 19.2mph /  30.9km/h 96% 0in /  0.0mm
07:03 48.6 °F /  9.2 °C 47.5 °F /  8.6 °C 29.6in /  1000.9hPa SSW 10.7mph /  17.2km/h 21.3mph /  34.3km/h 96% 0in /  0.0mm
07:08 48.4 °F /  9.1 °C 47.3 °F /  8.5 °C 29.6in /  1000.9hPa SW 17.2mph /  27.7km/h 21.3mph /  34.3km/h 96% 0in /  0.0mm
07:13 48.4 °F /  9.1 °C 47.3 °F /  8.5 °C 29.6in /  1000.9hPa SW 9.8mph /  15.8km/h 19.2mph /  30.9km/h 96% 0in /  0.0mm
07:18 48.4 °F /  9.1 °C 47.3 °F /  8.5 °C 29.6in /  1000.9hPa WSW 14.3mph /  23.0km/h 19.2mph /  30.9km/h 96% 0in /  0.0mm
07:23 48.2 °F /  9.0 °C 47.1 °F /  8.4 °C 29.6in /  1000.9hPa SW 13mph /  20.9km/h 18.8mph /  30.2km/h 96% 0in /  0.0mm
07:28 48.2 °F /  9.0 °C 47.1 °F /  8.4 °C 29.6in /  1000.9hPa SW 13mph /  20.9km/h 18.8mph /  30.2km/h 96% 0in /  0.0mm
07:33 48.2 °F /  9.0 °C 47.1 °F /  8.4 °C 29.6in /  1000.9hPa SW 10.7mph /  17.2km/h 16.3mph /  26.2km/h 96% 0in /  0.0mm
07:38 48.2 °F /  9.0 °C 47.1 °F /  8.4 °C 29.6in /  1000.9hPa SW 11.9mph /  19.1km/h 15.4mph /  24.8km/h 96% 0in /  0.0mm
07:43 48.2 °F /  9.0 °C 47.1 °F /  8.4 °C 29.6in /  1000.9hPa SSW 13.4mph /  21.6km/h 17.4mph /  28.0km/h 96% 0in /  0.0mm
07:48 48.2 °F /  9.0 °C 47.1 °F /  8.4 °C 29.6in /  1000.9hPa SW 12.5mph /  20.1km/h 17.4mph /  28.0km/h 96% 0in /  0.0mm
07:53 48.2 °F /  9.0 °C 47.1 °F /  8.4 °C 29.6in /  1000.9hPa WSW 17.7mph /  28.5km/h 21.9mph /  35.2km/h 96% 0in /  0.0mm
07:58 48.4 °F /  9.1 °C 47.3 °F /  8.5 °C 29.6in /  1000.9hPa WSW 12.5mph /  20.1km/h 21.9mph /  35.2km/h 96% 0in /  0.0mm
08:03 48.4 °F /  9.1 °C 47.3 °F /  8.5 °C 29.6in /  1000.9hPa WSW 10.1mph /  16.3km/h 17.7mph /  28.5km/h 96% 0in /  0.0mm
08:08 48.4 °F /  9.1 °C 47.3 °F /  8.5 °C 29.5in /  999.9hPa SSW 14.3mph /  23.0km/h 20.6mph /  33.1km/h 96% 0in /  0.0mm
08:13 48.4 °F /  9.1 °C 47.3 °F /  8.5 °C 29.5in /  999.9hPa SW 10.7mph /  17.2km/h 20.6mph /  33.1km/h 96% 0in /  0.0mm
08:18 48.4 °F /  9.1 °C 47.3 °F /  8.5 °C 29.5in /  999.9hPa WSW 10.3mph /  16.6km/h 17.7mph /  28.5km/h 96% 0in /  0.0mm
08:23 48.4 °F /  9.1 °C 47.3 °F /  8.5 °C 29.5in /  998.9hPa WSW 10.5mph /  16.9km/h 17.7mph /  28.5km/h 96% 0in /  0.0mm
08:28 48.4 °F /  9.1 °C 47.3 °F /  8.5 °C 29.5in /  998.9hPa SSW 12.1mph /  19.5km/h 15.2mph /  24.5km/h 96% 0in /  0.0mm
08:33 48.4 °F /  9.1 °C 47.3 °F /  8.5 °C 29.5in /  998.9hPa SW 11mph /  17.7km/h 17mph /  27.4km/h 96% 0in /  0.0mm
08:38 48.4 °F /  9.1 °C 47.3 °F /  8.5 °C 29.5in /  998.9hPa SW 15.9mph /  25.6km/h 17.2mph /  27.7km/h 96% 0in /  0.0mm
08:43 48.4 °F /  9.1 °C 47.3 °F /  8.5 °C 29.5in /  998.9hPa WSW 18.8mph /  30.2km/h 18.8mph /  30.2km/h 96% 0in /  0.0mm
08:48 48.4 °F /  9.1 °C 47.3 °F /  8.5 °C 29.5in /  998.9hPa SW 13mph /  20.9km/h 21.5mph /  34.6km/h 96% 0in /  0.0mm
08:53 48.4 °F /  9.1 °C 47.3 °F /  8.5 °C 29.5in /  998.9hPa SW 15.2mph /  24.5km/h 22.1mph /  35.6km/h 96% 0in /  0.0mm
08:58 48.4 °F /  9.1 °C 47.3 °F /  8.5 °C 29.5in /  998.9hPa SW 18.6mph /  29.9km/h 22.6mph /  36.4km/h 96% 0in /  0.0mm
09:03 48.4 °F /  9.1 °C 47.3 °F /  8.5 °C 29.5in /  998.9hPa SW 13.6mph /  21.9km/h 22.6mph /  36.4km/h 96% 0in /  0.0mm
09:08 48.6 °F /  9.2 °C 47.5 °F /  8.6 °C 29.5in /  998.9hPa SW 12.3mph /  19.8km/h 22.4mph /  36.0km/h 96% 0in /  0.0mm
09:13 48.6 °F /  9.2 °C 47.5 °F /  8.6 °C 29.5in /  998.9hPa SW 12.5mph /  20.1km/h 22.1mph /  35.6km/h 96% 0in /  0.0mm
09:18 48.6 °F /  9.2 °C 47.5 °F /  8.6 °C 29.5in /  998.9hPa SSW 22.1mph /  35.6km/h 22.4mph /  36.0km/h 96% 0in /  0.0mm
09:23 48.6 °F /  9.2 °C 47.5 °F /  8.6 °C 29.5in /  998.9hPa SSW 21.9mph /  35.2km/h 22.4mph /  36.0km/h 96% 0in /  0.0mm
09:28 48.6 °F /  9.2 °C 47.5 °F /  8.6 °C 29.5in /  998.9hPa SSW 17mph /  27.4km/h 22.1mph /  35.6km/h 96% 0in /  0.0mm
09:33 48.6 °F /  9.2 °C 47.5 °F /  8.6 °C 29.5in /  998.9hPa SW 11mph /  17.7km/h 21.9mph /  35.2km/h 96% 0in /  0.0mm
09:38 48.6 °F /  9.2 °C 47.5 °F /  8.6 °C 29.5in /  998.9hPa SSW 16.3mph /  26.2km/h 17.4mph /  28.0km/h 96% 0in /  0.0mm
09:43 48.7 °F /  9.3 °C 47.7 °F /  8.7 °C 29.5in /  998.9hPa WSW 14.8mph /  23.8km/h 22.4mph /  36.0km/h 96% 0in /  0.0mm
09:48 48.6 °F /  9.2 °C 47.5 °F /  8.6 °C 29.5in /  998.9hPa SW 19.9mph /  32.0km/h 22.4mph /  36.0km/h 96% 0in /  0.0mm
09:53 48.6 °F /  9.2 °C 47.5 °F /  8.6 °C 29.5in /  997.9hPa SW 12.3mph /  19.8km/h 23mph /  37.0km/h 96% 0in /  0.0mm
09:58 48.6 °F /  9.2 °C 47.5 °F /  8.6 °C 29.5in /  997.9hPa SSW 8.9mph /  14.3km/h 23mph /  37.0km/h 96% 0in /  0.0mm
10:03 48.7 °F /  9.3 °C 47.7 °F /  8.7 °C 29.5in /  997.9hPa WSW 14.8mph /  23.8km/h 19mph /  30.6km/h 96% 0in /  0.0mm
10:08 48.7 °F /  9.3 °C 47.7 °F /  8.7 °C 29.5in /  997.9hPa SSW 10.5mph /  16.9km/h 19mph /  30.6km/h 96% 0in /  0.0mm
10:13 48.7 °F /  9.3 °C 47.7 °F /  8.7 °C 29.5in /  997.9hPa SW 12.5mph /  20.1km/h 19.2mph /  30.9km/h 96% 0in /  0.0mm
10:18 48.9 °F /  9.4 °C 47.8 °F /  8.8 °C 29.5in /  997.9hPa WSW 12.3mph /  19.8km/h 23.3mph /  37.5km/h 96% 0in /  0.0mm
10:23 48.9 °F /  9.4 °C 47.8 °F /  8.8 °C 29.4in /  996.8hPa South 10.3mph /  16.6km/h 23.3mph /  37.5km/h 96% 0in /  0.0mm
10:28 49.1 °F /  9.5 °C 48 °F /  8.9 °C 29.4in /  996.8hPa WSW 12.5mph /  20.1km/h 17.7mph /  28.5km/h 96% 0in /  0.0mm
10:33 49.1 °F /  9.5 °C 48 °F /  8.9 °C 29.4in /  996.8hPa SSW 12.8mph /  20.6km/h 26.6mph /  42.8km/h 96% 0.01in /  0.3mm
10:38 49.3 °F /  9.6 °C 48.2 °F /  9.0 °C 29.4in /  996.8hPa SSW 12.8mph /  20.6km/h 26.6mph /  42.8km/h 96% 0.01in /  0.3mm
10:43 49.3 °F /  9.6 °C 48.2 °F /  9.0 °C 29.4in /  996.8hPa SSW 22.1mph /  35.6km/h 22.1mph /  35.6km/h 96% 0.01in /  0.3mm
10:48 49.5 °F /  9.7 °C 48.4 °F /  9.1 °C 29.4in /  996.8hPa WSW 15.4mph /  24.8km/h 24.2mph /  38.9km/h 96% 0.01in /  0.3mm
10:53 49.6 °F /  9.8 °C 48.4 °F /  9.1 °C 29.4in /  996.8hPa WSW 10.7mph /  17.2km/h 24.2mph /  38.9km/h 95% 0.01in /  0.3mm
10:58 49.8 °F /  9.9 °C 48.4 °F /  9.1 °C 29.4in /  996.8hPa SSW 16.3mph /  26.2km/h 23.7mph /  38.1km/h 95% 0.01in /  0.3mm
11:03 49.8 °F /  9.9 °C 48.4 °F /  9.1 °C 29.4in /  996.8hPa WSW 12.8mph /  20.6km/h 23.7mph /  38.1km/h 95% 0.01in /  0.3mm
11:08 50 °F /  10.0 °C 48.4 °F /  9.1 °C 29.4in /  996.2hPa SW 13.2mph /  21.2km/h 23.9mph /  38.5km/h 94% 0.01in /  0.3mm
11:13 50 °F /  10.0 °C 48 °F /  8.9 °C 29.4in /  996.2hPa SW 17.7mph /  28.5km/h 24.6mph /  39.6km/h 93% 0.01in /  0.3mm
11:18 50.2 °F /  10.1 °C 48.2 °F /  9.0 °C 29.4in /  996.2hPa WSW 19.2mph /  30.9km/h 24.6mph /  39.6km/h 93% 0.01in /  0.3mm
11:23 50.2 °F /  10.1 °C 47.8 °F /  8.8 °C 29.4in /  995.1hPa SW 19.5mph /  31.4km/h 29.5mph /  47.5km/h 92% 0.01in /  0.3mm
11:28 50 °F /  10.0 °C 48 °F /  8.9 °C 29.4in /  995.1hPa WSW 19.2mph /  30.9km/h 29.5mph /  47.5km/h 93% 0.01in /  0.3mm
11:33 50 °F /  10.0 °C 48 °F /  8.9 °C 29.4in /  995.1hPa SW 12.5mph /  20.1km/h 28.4mph /  45.7km/h 93% 0in /  0.0mm
11:38 49.8 °F /  9.9 °C 48.2 °F /  9.0 °C 29.4in /  995.1hPa SW 16.8mph /  27.0km/h 28.4mph /  45.7km/h 94% 0in /  0.0mm
11:43 49.8 °F /  9.9 °C 48.2 °F /  9.0 °C 29.4in /  995.1hPa WSW 10.3mph /  16.6km/h 24.6mph /  39.6km/h 94% 0in /  0.0mm
11:48 49.8 °F /  9.9 °C 48.4 °F /  9.1 °C 29.4in /  995.1hPa WSW 23mph /  37.0km/h 26.4mph /  42.5km/h 95% 0in /  0.0mm
11:53 49.8 °F /  9.9 °C 48.4 °F /  9.1 °C 29.4in /  994.1hPa WSW 23.5mph /  37.8km/h 27.7mph /  44.6km/h 95% 0in /  0.0mm
11:58 49.8 °F /  9.9 °C 48.4 °F /  9.1 °C 29.4in /  994.1hPa WSW 12.3mph /  19.8km/h 27.7mph /  44.6km/h 95% 0in /  0.0mm
12:03 49.8 °F /  9.9 °C 48.7 °F /  9.3 °C 29.4in /  994.1hPa WSW 22.4mph /  36.0km/h 26.8mph /  43.1km/h 96% 0in /  0.0mm
12:08 49.8 °F /  9.9 °C 48.7 °F /  9.3 °C 29.4in /  995.1hPa WSW 23.7mph /  38.1km/h 25.5mph /  41.0km/h 96% 0in /  0.0mm
12:13 50 °F /  10.0 °C 48.9 °F /  9.4 °C 29.4in /  995.1hPa WSW 40mph /  64.4km/h 44.1mph /  71.0km/h 96% 0.01in /  0.3mm
12:18 49.8 °F /  9.9 °C 48.4 °F /  9.1 °C 29.4in /  995.1hPa West 24.4mph /  39.3km/h 44.1mph /  71.0km/h 95% 0.02in /  0.5mm
12:23 50 °F /  10.0 °C 48.9 °F /  9.4 °C 29.4in /  995.1hPa WSW 25.1mph /  40.4km/h 40.9mph /  65.8km/h 96% 0.03in /  0.8mm
12:28 50.4 °F /  10.2 °C 49.3 °F /  9.6 °C 29.4in /  995.1hPa WSW 25.9mph /  41.7km/h 30.2mph /  48.6km/h 96% 0.03in /  0.8mm
12:33 50.5 °F /  10.3 °C 49.1 °F /  9.5 °C 29.4in /  995.1hPa SW 28.9mph /  46.5km/h 37.1mph /  59.7km/h 95% 0.03in /  0.8mm
12:38 51.1 °F /  10.6 °C 48.6 °F /  9.2 °C 29.4in /  994.1hPa West 31.1mph /  50.0km/h 39.6mph /  63.7km/h 91% 0.03in /  0.8mm
12:43 52 °F /  11.1 °C 48.2 °F /  9.0 °C 29.4in /  994.1hPa WSW 34.4mph /  55.3km/h 42.1mph /  67.7km/h 87% 0.03in /  0.8mm
12:48 52 °F /  11.1 °C 47.7 °F /  8.7 °C 29.4in /  994.1hPa WSW 25.7mph /  41.4km/h 42.1mph /  67.7km/h 85% 0.03in /  0.8mm
12:53 51.6 °F /  10.9 °C 45.7 °F /  7.6 °C 29.4in /  995.1hPa WSW 36.7mph /  59.1km/h 39.4mph /  63.4km/h 80% 0.05in /  1.3mm
12:58 51.4 °F /  10.8 °C 45.1 °F /  7.3 °C 29.4in /  995.1hPa WSW 27.7mph /  44.6km/h 43.4mph /  69.8km/h 79% 0.05in /  1.3mm
13:03 51.4 °F /  10.8 °C 45.1 °F /  7.3 °C 29.4in /  995.1hPa WSW 23.3mph /  37.5km/h 43.4mph /  69.8km/h 79% 0.05in /  1.3mm
13:08 51.4 °F /  10.8 °C 43.7 °F /  6.5 °C 29.4in /  995.1hPa WSW 23.5mph /  37.8km/h 36.9mph /  59.4km/h 75% 0.05in /  1.3mm
13:13 52.5 °F /  11.4 °C 46 °F /  7.8 °C 29.4in /  995.1hPa WSW 31.1mph /  50.0km/h 36.9mph /  59.4km/h 79% 0.04in /  1.0mm
13:18 53.1 °F /  11.7 °C 46 °F /  7.8 °C 29.4in /  995.1hPa West 25.5mph /  41.0km/h 40.7mph /  65.5km/h 77% 0.03in /  0.8mm
13:23 52.5 °F /  11.4 °C 45.3 °F /  7.4 °C 29.4in /  994.1hPa West 33.3mph /  53.6km/h 41.8mph /  67.3km/h 76% 0.01in /  0.3mm
13:28 53.2 °F /  11.8 °C 45.3 °F /  7.4 °C 29.4in /  994.1hPa West 42.7mph /  68.7km/h 44.3mph /  71.3km/h 75% 0.01in /  0.3mm
13:33 53.4 °F /  11.9 °C 43.5 °F /  6.4 °C 29.4in /  994.1hPa WSW 32.2mph /  51.8km/h 50.3mph /  80.9km/h 69% 0.01in /  0.3mm
13:38 53.2 °F /  11.8 °C 41.7 °F /  5.4 °C 29.4in /  994.1hPa WSW 48.8mph /  78.5km/h 50.3mph /  80.9km/h 65% 0.01in /  0.3mm
13:43 53.1 °F /  11.7 °C 41.5 °F /  5.3 °C 29.4in /  994.1hPa West 34mph /  54.7km/h 48.8mph /  78.5km/h 65% 0.01in /  0.3mm
13:48 53.1 °F /  11.7 °C 41.2 °F /  5.1 °C 29.4in /  994.1hPa WSW 37.1mph /  59.7km/h 43.8mph /  70.5km/h 64% 0.01in /  0.3mm
13:53 53.1 °F /  11.7 °C 41.9 °F /  5.5 °C 29.4in /  994.1hPa West 39.6mph /  63.7km/h 47mph /  75.6km/h 66% 0in /  0.0mm
13:58 52.5 °F /  11.4 °C 40.5 °F /  4.7 °C 29.4in /  994.1hPa West 41.8mph /  67.3km/h 47mph /  75.6km/h 63% 0in /  0.0mm
14:03 52.5 °F /  11.4 °C 40.6 °F /  4.8 °C 29.4in /  994.1hPa WSW 32.7mph /  52.6km/h 45.9mph /  73.9km/h 64% 0in /  0.0mm
14:08 52.5 °F /  11.4 °C 39.7 °F /  4.3 °C 29.4in /  994.1hPa West 40mph /  64.4km/h 59.1mph /  95.1km/h 62% 0in /  0.0mm
14:13 52.2 °F /  11.2 °C 39.9 °F /  4.4 °C 29.4in /  994.1hPa West 38.7mph /  62.3km/h 59.1mph /  95.1km/h 63% 0in /  0.0mm
14:18 51.8 °F /  11.0 °C 39.9 °F /  4.4 °C 29.4in /  994.1hPa West 43.8mph /  70.5km/h 51.9mph /  83.5km/h 64% 0in /  0.0mm
14:23 51.6 °F /  10.9 °C 40.3 °F /  4.6 °C 29.4in /  994.1hPa West 47mph /  75.6km/h 51.9mph /  83.5km/h 65% 0in /  0.0mm
14:28 51.6 °F /  10.9 °C 39.4 °F /  4.1 °C 29.4in /  994.1hPa West 33.1mph /  53.3km/h 47.6mph /  76.6km/h 63% 0in /  0.0mm
14:33 51.4 °F /  10.8 °C 39.6 °F /  4.2 °C 29.4in /  994.1hPa WSW 35.3mph /  56.8km/h 47.6mph /  76.6km/h 64% 0in /  0.0mm
14:38 51.3 °F /  10.7 °C 39 °F /  3.9 °C 29.4in /  994.1hPa WSW 43.4mph /  69.8km/h 49.4mph /  79.5km/h 63% 0in /  0.0mm
14:43 51.3 °F /  10.7 °C 39.6 °F /  4.2 °C 29.4in /  994.1hPa West 24.4mph /  39.3km/h 49.4mph /  79.5km/h 64% 0in /  0.0mm
14:48 51.3 °F /  10.7 °C 39.9 °F /  4.4 °C 29.4in /  994.1hPa WSW 37.8mph /  60.8km/h 44.1mph /  71.0km/h 65% 0in /  0.0mm
14:53 51.3 °F /  10.7 °C 40.6 °F /  4.8 °C 29.4in /  994.1hPa West 30mph /  48.3km/h 44.1mph /  71.0km/h 67% 0in /  0.0mm
14:58 51.4 °F /  10.8 °C 40.8 °F /  4.9 °C 29.4in /  994.1hPa West 33.1mph /  53.3km/h 43.8mph /  70.5km/h 67% 0in /  0.0mm
15:03 51.6 °F /  10.9 °C 40.6 °F /  4.8 °C 29.4in /  994.1hPa SW 37.6mph /  60.5km/h 40.9mph /  65.8km/h 66% 0in /  0.0mm
15:08 51.4 °F /  10.8 °C 39.9 °F /  4.4 °C 29.4in /  994.1hPa WSW 38.9mph /  62.6km/h 46.8mph /  75.3km/h 65% 0in /  0.0mm
15:13 51.4 °F /  10.8 °C 39.2 °F /  4.0 °C 29.4in /  994.1hPa WSW 39.4mph /  63.4km/h 47.6mph /  76.6km/h 63% 0in /  0.0mm
15:18 51.8 °F /  11.0 °C 39.6 °F /  4.2 °C 29.4in /  994.1hPa West 26.6mph /  42.8km/h 47.6mph /  76.6km/h 63% 0in /  0.0mm
15:23 51.6 °F /  10.9 °C 39 °F /  3.9 °C 29.4in /  994.1hPa WSW 44.5mph /  71.6km/h 53mph /  85.3km/h 62% 0in /  0.0mm
15:28 52 °F /  11.1 °C 39.7 °F /  4.3 °C 29.4in /  994.1hPa West 39.1mph /  62.9km/h 53mph /  85.3km/h 63% 0in /  0.0mm
15:33 51.8 °F /  11.0 °C 39 °F /  3.9 °C 29.4in /  994.1hPa West 37.6mph /  60.5km/h 46.3mph /  74.5km/h 62% 0in /  0.0mm
15:38 51.8 °F /  11.0 °C 38.3 °F /  3.5 °C 29.4in /  994.1hPa West 36.5mph /  58.7km/h 46.3mph /  74.5km/h 60% 0in /  0.0mm
15:43 52.2 °F /  11.2 °C 39.9 °F /  4.4 °C 29.4in /  994.1hPa West 35.3mph /  56.8km/h 46.1mph /  74.2km/h 63% 0in /  0.0mm
15:48 51.4 °F /  10.8 °C 37.6 °F /  3.1 °C 29.4in /  994.1hPa West 37.4mph /  60.2km/h 46.5mph /  74.8km/h 59% 0in /  0.0mm
15:53 51.3 °F /  10.7 °C 38.7 °F /  3.7 °C 29.4in /  994.1hPa West 23.9mph /  38.5km/h 46.5mph /  74.8km/h 62% 0in /  0.0mm
15:58 51.4 °F /  10.8 °C 37.6 °F /  3.1 °C 29.4in /  994.1hPa West 29.5mph /  47.5km/h 47.6mph /  76.6km/h 59% 0in /  0.0mm
16:03 51.6 °F /  10.9 °C 38.1 °F /  3.4 °C 29.4in /  994.1hPa West 42.1mph /  67.7km/h 47.6mph /  76.6km/h 60% 0in /  0.0mm
16:04 51.6 °F /  10.9 °C 38.1 °F /  3.4 °C 29.4in /  994.1hPa WSW 33.1mph /  53.3km/h 47.6mph /  76.6km/h 60% 0in /  0.0mm
16:09 51.4 °F /  10.8 °C 37.6 °F /  3.1 °C 29.4in /  994.1hPa WSW 32mph /  51.5km/h 47.6mph /  76.6km/h 59% 0in /  0.0mm
16:10 51.4 °F /  10.8 °C 37.6 °F /  3.1 °C 29.4in /  994.1hPa WNW 42.3mph /  68.1km/h 47.6mph /  76.6km/h 59% 0in /  0.0mm
16:15 51.1 °F /  10.6 °C 37.6 °F /  3.1 °C 29.4in /  994.1hPa WNW 37.4mph /  60.2km/h 49.4mph /  79.5km/h 60% 0in /  0.0mm
16:20 51.1 °F /  10.6 °C 37.2 °F /  2.9 °C 29.4in /  994.1hPa West 33.1mph /  53.3km/h 51.7mph /  83.2km/h 59% 0in /  0.0mm
16:25 50.9 °F /  10.5 °C 37 °F /  2.8 °C 29.4in /  994.1hPa WSW 44.3mph /  71.3km/h 51.7mph /  83.2km/h 59% 0in /  0.0mm
16:30 50.7 °F /  10.4 °C 37.8 °F /  3.2 °C 29.4in /  994.1hPa West 33.6mph /  54.1km/h 47.2mph /  75.9km/h 61% 0in /  0.0mm
16:35 50.7 °F /  10.4 °C 36.9 °F /  2.7 °C 29.4in /  994.1hPa West 40.3mph /  64.8km/h 51mph /  82.1km/h 59% 0in /  0.0mm
16:40 50.9 °F /  10.5 °C 37 °F /  2.8 °C 29.4in /  995.1hPa West 25.7mph /  41.4km/h 51mph /  82.1km/h 59% 0in /  0.0mm
16:45 50.9 °F /  10.5 °C 37 °F /  2.8 °C 29.4in /  995.1hPa West 30.2mph /  48.6km/h 44.3mph /  71.3km/h 59% 0in /  0.0mm
16:50 50.7 °F /  10.4 °C 36.9 °F /  2.7 °C 29.4in /  995.1hPa West 32.4mph /  52.1km/h 44.1mph /  71.0km/h 59% 0in /  0.0mm
16:55 50.5 °F /  10.3 °C 37.6 °F /  3.1 °C 29.4in /  995.1hPa West 24.2mph /  38.9km/h 44.1mph /  71.0km/h 61% 0in /  0.0mm
17:00 50.2 °F /  10.1 °C 36.9 °F /  2.7 °C 29.4in /  995.1hPa WSW 30.9mph /  49.7km/h 42.1mph /  67.7km/h 60% 0in /  0.0mm
17:05 50.2 °F /  10.1 °C 37.6 °F /  3.1 °C 29.4in /  995.1hPa West 25.3mph /  40.7km/h 39.8mph /  64.0km/h 62% 0in /  0.0mm
17:10 50 °F /  10.0 °C 36.7 °F /  2.6 °C 29.4in /  995.1hPa West 32.9mph /  52.9km/h 47.2mph /  75.9km/h 60% 0in /  0.0mm
17:15 50 °F /  10.0 °C 36.7 °F /  2.6 °C 29.4in /  995.1hPa West 32.9mph /  52.9km/h 47.2mph /  75.9km/h 60% 0in /  0.0mm
17:20 49.8 °F /  9.9 °C 36.9 °F /  2.7 °C 29.4in /  995.1hPa West 32.4mph /  52.1km/h 37.8mph /  60.8km/h 61% 0in /  0.0mm
17:25 49.6 °F /  9.8 °C 36.3 °F /  2.4 °C 29.4in /  994.1hPa West 26.6mph /  42.8km/h 43.4mph /  69.8km/h 60% 0in /  0.0mm
17:30 49.5 °F /  9.7 °C 37 °F /  2.8 °C 29.4in /  994.1hPa WSW 24.6mph /  39.6km/h 43.4mph /  69.8km/h 62% 0in /  0.0mm
17:35 49.3 °F /  9.6 °C 36.9 °F /  2.7 °C 29.4in /  994.1hPa West 28.9mph /  46.5km/h 39.4mph /  63.4km/h 62% 0in /  0.0mm
17:40 49.1 °F /  9.5 °C 36.7 °F /  2.6 °C 29.4in /  995.1hPa WSW 27.7mph /  44.6km/h 39.4mph /  63.4km/h 62% 0in /  0.0mm
17:45 48.9 °F /  9.4 °C 36.5 °F /  2.5 °C 29.4in /  995.1hPa West 32.7mph /  52.6km/h 37.1mph /  59.7km/h 62% 0in /  0.0mm
17:50 48.7 °F /  9.3 °C 36.7 °F /  2.6 °C 29.4in /  995.1hPa West 25.9mph /  41.7km/h 37.1mph /  59.7km/h 63% 0in /  0.0mm
17:55 48.4 °F /  9.1 °C 36.9 °F /  2.7 °C 29.4in /  995.1hPa West 33.1mph /  53.3km/h 37.8mph /  60.8km/h 64% 0in /  0.0mm
18:00 48.4 °F /  9.1 °C 36.9 °F /  2.7 °C 29.4in /  995.1hPa SSW 30mph /  48.3km/h 42.3mph /  68.1km/h 64% 0in /  0.0mm
18:05 48.4 °F /  9.1 °C 36.9 °F /  2.7 °C 29.4in /  995.1hPa West 30.4mph /  48.9km/h 42.3mph /  68.1km/h 64% 0in /  0.0mm
18:10 48.2 °F /  9.0 °C 37 °F /  2.8 °C 29.4in /  996.2hPa WNW 26.4mph /  42.5km/h 36.5mph /  58.7km/h 65% 0in /  0.0mm
18:15 48 °F /  8.9 °C 36.9 °F /  2.7 °C 29.4in /  996.2hPa West 34mph /  54.7km/h 34mph /  54.7km/h 65% 0in /  0.0mm
18:20 48 °F /  8.9 °C 36.9 °F /  2.7 °C 29.4in /  996.2hPa WSW 27.5mph /  44.2km/h 34.7mph /  55.8km/h 65% 0in /  0.0mm
18:25 47.8 °F /  8.8 °C 37 °F /  2.8 °C 29.4in /  996.2hPa WSW 29.8mph /  47.9km/h 35.6mph /  57.3km/h 66% 0in /  0.0mm
18:30 47.7 °F /  8.7 °C 36.9 °F /  2.7 °C 29.4in /  996.2hPa West 30.4mph /  48.9km/h 35.6mph /  57.3km/h 66% 0in /  0.0mm
18:35 47.7 °F /  8.7 °C 36.9 °F /  2.7 °C 29.4in /  996.2hPa WSW 25.5mph /  41.0km/h 33.3mph /  53.6km/h 66% 0in /  0.0mm
18:40 47.5 °F /  8.6 °C 36.7 °F /  2.6 °C 29.4in /  996.8hPa WSW 18.6mph /  29.9km/h 33.3mph /  53.6km/h 66% 0in /  0.0mm
18:45 47.5 °F /  8.6 °C 36.7 °F /  2.6 °C 29.4in /  996.8hPa West 28.6mph /  46.0km/h 30mph /  48.3km/h 66% 0in /  0.0mm
18:50 47.5 °F /  8.6 °C 37 °F /  2.8 °C 29.4in /  996.8hPa West 29.8mph /  47.9km/h 35.3mph /  56.8km/h 67% 0in /  0.0mm
18:55 47.5 °F /  8.6 °C 37 °F /  2.8 °C 29.4in /  996.8hPa West 25.9mph /  41.7km/h 35.3mph /  56.8km/h 67% 0in /  0.0mm
19:00 47.5 °F /  8.6 °C 36.7 °F /  2.6 °C 29.4in /  996.8hPa WSW 27.5mph /  44.2km/h 34.7mph /  55.8km/h 66% 0in /  0.0mm
19:05 47.5 °F /  8.6 °C 36.3 °F /  2.4 °C 29.4in /  996.8hPa West 29.1mph /  46.8km/h 34.7mph /  55.8km/h 65% 0in /  0.0mm
19:10 47.5 °F /  8.6 °C 36 °F /  2.2 °C 29.4in /  996.2hPa West 27.1mph /  43.6km/h 35.3mph /  56.8km/h 64% 0in /  0.0mm
19:15 47.5 °F /  8.6 °C 36 °F /  2.2 °C 29.4in /  996.2hPa West 17.9mph /  28.8km/h 37.6mph /  60.5km/h 64% 0in /  0.0mm
19:20 47.5 °F /  8.6 °C 36 °F /  2.2 °C 29.4in /  996.2hPa West 24.2mph /  38.9km/h 37.6mph /  60.5km/h 64% 0in /  0.0mm
19:25 47.5 °F /  8.6 °C 36 °F /  2.2 °C 29.4in /  996.2hPa West 17.2mph /  27.7km/h 34.4mph /  55.3km/h 64% 0in /  0.0mm
19:30 47.3 °F /  8.5 °C 35.4 °F /  1.9 °C 29.4in /  996.2hPa West 17.2mph /  27.7km/h 31.1mph /  50.0km/h 63% 0in /  0.0mm
19:35 47.3 °F /  8.5 °C 35.8 °F /  2.1 °C 29.4in /  996.2hPa West 26.6mph /  42.8km/h 31.1mph /  50.0km/h 64% 0in /  0.0mm
19:40 47.3 °F /  8.5 °C 35.8 °F /  2.1 °C 29.4in /  996.8hPa WSW 16.8mph /  27.0km/h 32.9mph /  52.9km/h 64% 0in /  0.0mm
19:45 47.3 °F /  8.5 °C 36.1 °F /  2.3 °C 29.4in /  996.8hPa West 22.8mph /  36.7km/h 32.9mph /  52.9km/h 65% 0in /  0.0mm
19:50 47.5 °F /  8.6 °C 36 °F /  2.2 °C 29.4in /  996.8hPa WSW 15.2mph /  24.5km/h 34mph /  54.7km/h 64% 0in /  0.0mm
19:55 47.3 °F /  8.5 °C 36.1 °F /  2.3 °C 29.5in /  997.9hPa West 25.5mph /  41.0km/h 34mph /  54.7km/h 65% 0in /  0.0mm
20:00 47.3 °F /  8.5 °C 36.7 °F /  2.6 °C 29.5in /  997.9hPa West 23.7mph /  38.1km/h 33.1mph /  53.3km/h 66% 0in /  0.0mm
20:05 47.3 °F /  8.5 °C 36.7 °F /  2.6 °C 29.5in /  997.9hPa West 19.9mph /  32.0km/h 33.1mph /  53.3km/h 66% 0in /  0.0mm
20:10 47.3 °F /  8.5 °C 36.7 °F /  2.6 °C 29.5in /  997.9hPa West 23.3mph /  37.5km/h 36.9mph /  59.4km/h 66% 0in /  0.0mm
20:15 47.3 °F /  8.5 °C 36.7 °F /  2.6 °C 29.5in /  997.9hPa NW 22.1mph /  35.6km/h 36.9mph /  59.4km/h 66% 0in /  0.0mm
20:20 47.1 °F /  8.4 °C 36.9 °F /  2.7 °C 29.5in /  997.9hPa West 13mph /  20.9km/h 33.1mph /  53.3km/h 67% 0in /  0.0mm
20:25 46.9 °F /  8.3 °C 36.7 °F /  2.6 °C 29.5in /  998.9hPa WSW 13.9mph /  22.4km/h 25.1mph /  40.4km/h 67% 0in /  0.0mm
20:30 46.9 °F /  8.3 °C 36.7 °F /  2.6 °C 29.5in /  998.9hPa West 22.4mph /  36.0km/h 22.8mph /  36.7km/h 67% 0in /  0.0mm
20:35 46.9 °F /  8.3 °C 36.7 °F /  2.6 °C 29.5in /  998.9hPa West 18.8mph /  30.2km/h 25.9mph /  41.7km/h 67% 0in /  0.0mm
20:40 46.9 °F /  8.3 °C 36.7 °F /  2.6 °C 29.5in /  998.9hPa WNW 13.2mph /  21.2km/h 26.2mph /  42.2km/h 67% 0in /  0.0mm
20:45 47.3 °F /  8.5 °C 36.1 °F /  2.3 °C 29.5in /  998.9hPa West 12.8mph /  20.6km/h 26.2mph /  42.2km/h 65% 0in /  0.0mm
20:50 47.3 °F /  8.5 °C 36.1 °F /  2.3 °C 29.5in /  998.9hPa West 25.3mph /  40.7km/h 25.3mph /  40.7km/h 65% 0in /  0.0mm
20:55 47.3 °F /  8.5 °C 35.8 °F /  2.1 °C 29.5in /  997.9hPa NW 17.2mph /  27.7km/h 25.3mph /  40.7km/h 64% 0in /  0.0mm
21:00 47.5 °F /  8.6 °C 35.1 °F /  1.7 °C 29.5in /  997.9hPa WSW 16.8mph /  27.0km/h 26.2mph /  42.2km/h 62% 0in /  0.0mm
21:05 47.5 °F /  8.6 °C 34.7 °F /  1.5 °C 29.5in /  997.9hPa NW 16.8mph /  27.0km/h 28mph /  45.1km/h 61% 0in /  0.0mm
21:10 47.5 °F /  8.6 °C 34.3 °F /  1.3 °C 29.5in /  999.9hPa NNW 11.2mph /  18.0km/h 28mph /  45.1km/h 60% 0in /  0.0mm
21:15 47.3 °F /  8.5 °C 34.2 °F /  1.2 °C 29.5in /  999.9hPa West 10.7mph /  17.2km/h 19.7mph /  31.7km/h 60% 0in /  0.0mm
21:20 47.5 °F /  8.6 °C 34 °F /  1.1 °C 29.5in /  999.9hPa West 7.6mph /  12.2km/h 17.4mph /  28.0km/h 59% 0in /  0.0mm
21:25 47.5 °F /  8.6 °C 33.4 °F /  0.8 °C 29.6in /  1000.9hPa West 15.7mph /  25.3km/h 22.6mph /  36.4km/h 58% 0in /  0.0mm
21:30 47.5 °F /  8.6 °C 33.1 °F /  0.6 °C 29.6in /  1000.9hPa WNW 12.3mph /  19.8km/h 23.5mph /  37.8km/h 57% 0in /  0.0mm
21:35 47.3 °F /  8.5 °C 32.4 °F /  0.2 °C 29.6in /  1000.9hPa WNW 11.4mph /  18.3km/h 23.7mph /  38.1km/h 56% 0in /  0.0mm
21:40 47.3 °F /  8.5 °C 32.4 °F /  0.2 °C 29.6in /  1000.9hPa WNW 14.3mph /  23.0km/h 23.7mph /  38.1km/h 56% 0in /  0.0mm
21:45 47.3 °F /  8.5 °C 32.9 °F /  0.5 °C 29.6in /  1000.9hPa WNW 8.7mph /  14.0km/h 22.8mph /  36.7km/h 57% 0in /  0.0mm
21:50 47.1 °F /  8.4 °C 32.7 °F /  0.4 °C 29.6in /  1000.9hPa NW 13.9mph /  22.4km/h 18.8mph /  30.2km/h 57% 0in /  0.0mm
21:55 46.9 °F /  8.3 °C 32.2 °F /  0.1 °C 29.6in /  1000.9hPa WNW 19.7mph /  31.7km/h 19.7mph /  31.7km/h 56% 0in /  0.0mm
22:00 46.9 °F /  8.3 °C 32.2 °F /  0.1 °C 29.6in /  1000.9hPa WSW 6.3mph /  10.1km/h 20.4mph /  32.8km/h 56% 0in /  0.0mm
22:05 46.9 °F /  8.3 °C 31.6 °F /  -0.2 °C 29.6in /  1000.9hPa West 5.4mph /  8.7km/h 22.1mph /  35.6km/h 55% 0in /  0.0mm
22:10 46.9 °F /  8.3 °C 31.3 °F /  -0.4 °C 29.6in /  1000.9hPa West 8.1mph /  13.0km/h 24.4mph /  39.3km/h 54% 0in /  0.0mm
22:15 46.9 °F /  8.3 °C 31.6 °F /  -0.2 °C 29.6in /  1000.9hPa North 5.8mph /  9.3km/h 24.4mph /  39.3km/h 55% 0in /  0.0mm
22:20 46.8 °F /  8.2 °C 31.8 °F /  -0.1 °C 29.6in /  1000.9hPa South 8.7mph /  14.0km/h 17.2mph /  27.7km/h 56% 0in /  0.0mm
22:25 46.8 °F /  8.2 °C 31.8 °F /  -0.1 °C 29.6in /  1001.9hPa North 6.3mph /  10.1km/h 22.1mph /  35.6km/h 56% 0in /  0.0mm
22:30 46.6 °F /  8.1 °C 32.2 °F /  0.1 °C 29.6in /  1001.9hPa WNW 11.9mph /  19.1km/h 22.1mph /  35.6km/h 57% 0in /  0.0mm
22:35 46.6 °F /  8.1 °C 32.5 °F /  0.3 °C 29.6in /  1001.9hPa West 19.5mph /  31.4km/h 19.5mph /  31.4km/h 58% 0in /  0.0mm
22:40 46.6 °F /  8.1 °C 32 °F /  0.0 °C 29.6in /  1002.9hPa NNW 8.7mph /  14.0km/h 25.1mph /  40.4km/h 57% 0in /  0.0mm
22:45 46.6 °F /  8.1 °C 32.5 °F /  0.3 °C 29.6in /  1002.9hPa NNW 9.4mph /  15.1km/h 25.1mph /  40.4km/h 58% 0in /  0.0mm
22:50 46.2 °F /  7.9 °C 32.7 °F /  0.4 °C 29.6in /  1002.9hPa WNW 14.3mph /  23.0km/h 16.3mph /  26.2km/h 59% 0in /  0.0mm
22:55 46.2 °F /  7.9 °C 33.3 °F /  0.7 °C 29.6in /  1002.9hPa WNW 14.5mph /  23.3km/h 16.3mph /  26.2km/h 60% 0in /  0.0mm
23:00 46 °F /  7.8 °C 33.4 °F /  0.8 °C 29.6in /  1002.9hPa West 9.8mph /  15.8km/h 14.5mph /  23.3km/h 61% 0in /  0.0mm
23:05 46 °F /  7.8 °C 33.4 °F /  0.8 °C 29.6in /  1002.9hPa West 10.1mph /  16.3km/h 14.8mph /  23.8km/h 61% 0in /  0.0mm
23:10 46 °F /  7.8 °C 33.8 °F /  1.0 °C 29.6in /  1002.9hPa WNW 5.8mph /  9.3km/h 14.8mph /  23.8km/h 62% 0in /  0.0mm
23:11 46 °F /  7.8 °C 33.8 °F /  1.0 °C 29.6in /  1002.9hPa NNE 6.7mph /  10.8km/h 12.1mph /  19.5km/h 62% 0in /  0.0mm
23:16 45.9 °F /  7.7 °C 34 °F /  1.1 °C 29.6in /  1002.9hPa West 3.8mph /  6.1km/h 11.9mph /  19.1km/h 63% 0in /  0.0mm
23:21 45.9 °F /  7.7 °C 34.3 °F /  1.3 °C 29.6in /  1002.9hPa WNW 10.5mph /  16.9km/h 11mph /  17.7km/h 64% 0in /  0.0mm
23:26 45.9 °F /  7.7 °C 34.3 °F /  1.3 °C 29.6in /  1002.9hPa West 13mph /  20.9km/h 14.5mph /  23.3km/h 64% 0in /  0.0mm
23:31 45.9 °F /  7.7 °C 34.7 °F /  1.5 °C 29.6in /  1002.9hPa Calm   17mph /  27.4km/h 65% 0in /  0.0mm
23:36 45.9 °F /  7.7 °C 34.7 °F /  1.5 °C 29.6in /  1002.9hPa East 4.3mph /  6.9km/h 17mph /  27.4km/h 65% 0in /  0.0mm
23:41 45.7 °F /  7.6 °C 34.9 °F /  1.6 °C 29.6in /  1003.9hPa West 3.8mph /  6.1km/h 14.8mph /  23.8km/h 66% 0in /  0.0mm
23:46 45.3 °F /  7.4 °C 35.1 °F /  1.7 °C 29.6in /  1003.9hPa NW 6.3mph /  10.1km/h 15.4mph /  24.8km/h 67% 0in /  0.0mm
23:51 45.1 °F /  7.3 °C 35.1 °F /  1.7 °C 29.6in /  1003.9hPa NW 3.4mph /  5.5km/h 15.4mph /  24.8km/h 68% 0in /  0.0mm
23:53 45.1 °F /  7.3 °C 35.1 °F /  1.7 °C 29.6in /  1003.9hPa West 2.5mph /  4.0km/h 15.4mph /  24.8km/h 68% 0in /  0.0mm
23:58 45 °F /  7.2 °C 35.2 °F /  1.8 °C 29.6in /  1003.9hPa NW 2.9mph /  4.7km/h 9.4mph /  15.1km/h 69% 0in /  0.0mm
Données Historique de Météo Turbie

Mise a jour : 24/05/2018 23:16:14
Généré par Cumulus 1.9.4 (1099)